Time;durP1;ratioP1;P1;durP2;ratioP2;P2;SDS_P1;SDS_P2;PMS_P1;PMS_P2;Temp;Humidity;BMP_temperature;BMP_pressure;BME280_temperature;BME280_humidity;BME280_pressure;Samples;Min_cycle;Max_cycle;Signal;HPM_P1;HPM_P2
2021/05/11 00:02:52;;;;;;;3.65;2.65;;;;;;;32.12;15.05;94709.16;5092788;27;20348;-46
2021/05/11 00:05:19;;;;;;;6.57;3.65;;;;;;;31.27;16.20;94706.78;5092855;28;20328;-49
2021/05/11 00:07:46;;;;;;;4.88;2.95;;;;;;;31.59;16.29;94713.59;5092746;28;20055;-48
2021/05/11 00:10:14;;;;;;;4.90;3.22;;;;;;;30.66;16.79;94712.28;5092409;28;20040;-49
2021/05/11 00:12:41;;;;;;;6.18;3.65;;;;;;;31.55;15.80;94716.34;5092745;28;20211;-48
2021/05/11 00:15:08;;;;;;;5.55;3.92;;;;;;;31.46;15.87;94716.09;5092413;28;20048;-51
2021/05/11 00:17:35;;;;;;;8.32;5.78;;;;;;;31.40;15.99;94714.28;5092594;28;20439;-50
2021/05/11 00:20:03;;;;;;;7.53;5.07;;;;;;;30.66;16.65;94709.59;5092050;28;20115;-49
2021/05/11 00:22:31;;;;;;;6.88;5.22;;;;;;;31.09;16.12;94716.31;5092478;28;20051;-53
2021/05/11 00:24:58;;;;;;;7.80;5.78;;;;;;;30.59;16.61;94709.66;5092484;28;20052;-52
2021/05/11 00:27:25;;;;;;;7.60;4.95;;;;;;;30.63;16.67;94712.34;5092384;28;20052;-51
2021/05/11 00:29:52;;;;;;;6.85;4.20;;;;;;;31.38;16.25;94713.94;5091861;28;20105;-47
2021/05/11 00:32:19;;;;;;;6.43;4.63;;;;;;;30.58;16.95;94713.53;5092309;28;20044;-51
2021/05/11 00:34:46;;;;;;;6.53;5.03;;;;;;;30.88;16.53;94712.00;5092257;28;20044;-50
2021/05/11 00:37:13;;;;;;;8.15;5.15;;;;;;;30.58;16.72;94704.66;5091205;28;20044;-52
2021/05/11 00:39:41;;;;;;;7.32;4.80;;;;;;;30.96;16.35;94708.00;5091704;28;20119;-51
2021/05/11 00:42:08;;;;;;;7.20;4.93;;;;;;;30.62;16.87;94703.47;5092232;28;20044;-49
2021/05/11 00:44:35;;;;;;;9.10;5.32;;;;;;;31.17;16.19;94702.31;5090799;28;20048;-52
2021/05/11 00:47:04;;;;;;;6.97;5.25;;;;;;;30.91;16.25;94697.69;5091900;28;20044;-45
2021/05/11 00:49:33;;;;;;;8.52;5.55;;;;;;;30.60;16.87;94697.72;5091578;28;20609;-51
2021/05/11 00:52:02;;;;;;;6.32;4.95;;;;;;;29.99;17.52;94702.28;5085402;28;20043;-53
2021/05/11 00:54:29;;;;;;;7.30;5.60;;;;;;;30.77;16.91;94689.81;5071562;28;20083;-51
2021/05/11 00:56:57;;;;;;;7.47;4.60;;;;;;;30.25;17.41;94692.78;5071480;28;20336;-51
2021/05/11 00:59:28;;;;;;;9.05;5.70;;;;;;;30.35;17.51;94687.25;5080843;28;20048;-51
2021/05/11 01:02:02;;;;;;;9.40;5.75;;;;;;;30.25;17.46;94687.38;5091705;28;20052;-53
2021/05/11 01:04:29;;;;;;;7.97;5.50;;;;;;;30.78;16.83;94686.69;5091787;28;20055;-53
2021/05/11 01:06:56;;;;;;;9.48;5.57;;;;;;;30.48;17.35;94690.16;5091595;28;20055;-50
2021/05/11 01:09:24;;;;;;;8.88;5.40;;;;;;;29.95;17.75;94685.41;5091273;28;20044;-49
2021/05/11 01:11:53;;;;;;;8.20;5.50;;;;;;;30.08;17.56;94689.88;5091427;28;20331;-54
2021/05/11 01:14:20;;;;;;;8.20;5.40;;;;;;;30.51;17.22;94678.56;5076404;28;20048;-51
2021/05/11 01:16:53;;;;;;;9.68;5.93;;;;;;;30.50;17.26;94682.44;5077729;28;20044;-52
2021/05/11 02:23:29;;;;;;;6.25;4.18;;;;;;;29.79;17.71;94653.63;5056702;28;20049;-49
2021/05/11 02:25:57;;;;;;;6.45;4.25;;;;;;;30.11;17.52;94649.81;5057300;28;20459;-50
2021/05/11 02:28:24;;;;;;;6.45;4.22;;;;;;;30.12;17.55;94645.94;5076571;28;20382;-52
2021/05/11 02:30:51;;;;;;;12.13;4.82;;;;;;;30.05;17.69;94652.97;5076296;28;20052;-50
2021/05/11 02:33:19;;;;;;;6.95;4.07;;;;;;;29.17;18.58;94643.84;5076511;28;20041;-48
2021/05/11 02:35:46;;;;;;;7.22;4.20;;;;;;;30.21;17.34;94638.16;5076279;28;20055;-50
2021/05/11 02:38:14;;;;;;;9.80;4.30;;;;;;;28.64;19.17;94645.00;5076705;28;20431;-50
2021/05/11 02:40:41;;;;;;;9.48;4.28;;;;;;;29.25;18.50;94639.91;5075077;28;20047;-46
2021/05/11 02:43:18;;;;;;;8.02;3.85;;;;;;;29.85;17.74;94638.53;5076356;28;20071;-53
2021/05/11 02:45:45;;;;;;;9.90;4.03;;;;;;;30.42;17.43;94643.22;5075187;28;20048;-51
2021/05/11 02:48:12;;;;;;;7.07;4.32;;;;;;;29.58;18.31;94646.53;5075948;28;20497;-48
2021/05/11 02:50:39;;;;;;;10.13;4.40;;;;;;;28.99;18.81;94640.53;5074942;28;20052;-50
2021/05/11 02:53:06;;;;;;;6.75;4.03;;;;;;;28.96;19.07;94644.00;5064346;28;20049;-50
2021/05/11 02:55:34;;;;;;;6.72;4.03;;;;;;;29.32;18.53;94633.69;5056167;28;20056;-51
2021/05/11 02:58:01;;;;;;;8.77;4.45;;;;;;;29.68;18.20;94639.53;5071433;28;20454;-52
2021/05/11 03:00:28;;;;;;;7.90;4.38;;;;;;;29.25;18.74;94644.53;5075637;28;20048;-48
2021/05/11 03:02:56;;;;;;;9.10;4.28;;;;;;;28.99;19.03;94643.22;5076157;28;20368;-50
2021/05/11 03:05:23;;;;;;;9.73;4.72;;;;;;;29.04;18.89;94640.84;5075938;28;20048;-52
2021/05/11 03:07:50;;;;;;;7.18;4.65;;;;;;;29.67;18.10;94638.00;5075643;28;20055;-53
2021/05/11 03:10:19;;;;;;;12.23;5.45;;;;;;;27.28;20.89;94649.31;5075695;28;20040;-47
2021/05/11 03:12:46;;;;;;;8.57;4.43;;;;;;;28.36;19.35;94642.44;5070433;28;20049;-48
2021/05/11 03:15:14;;;;;;;10.65;4.60;;;;;;;28.78;18.79;94644.88;5074711;28;20049;-43
2021/05/11 03:17:41;;;;;;;6.85;4.13;;;;;;;29.19;18.48;94636.13;5074780;28;20079;-48
2021/05/11 03:20:10;;;;;;;11.50;4.60;;;;;;;29.21;18.59;94631.09;5074635;28;20044;-49
2021/05/11 03:22:38;;;;;;;8.80;4.68;;;;;;;29.14;18.61;94628.47;5063051;28;20037;-51
2021/05/11 03:25:06;;;;;;;6.05;4.43;;;;;;;29.46;18.41;94628.19;5074871;28;20055;-48
2021/05/11 03:27:33;;;;;;;15.90;5.07;;;;;;;29.82;17.95;94635.88;5073066;28;20059;-45
2021/05/11 03:30:00;;;;;;;9.93;4.55;;;;;;;28.92;19.07;94632.53;5073906;28;20359;-46
2021/05/11 03:32:27;;;;;;;9.27;4.63;;;;;;;29.03;18.48;94641.25;5074673;28;20048;-50
2021/05/11 03:34:55;;;;;;;9.07;4.68;;;;;;;29.59;18.00;94636.53;5074316;28;20111;-46
2021/05/11 03:37:22;;;;;;;7.88;4.25;;;;;;;30.34;17.69;94631.78;5062033;28;20115;-50
2021/05/11 03:39:49;;;;;;;10.05;4.78;;;;;;;29.70;18.24;94637.19;5055151;28;20493;-45
2021/05/11 03:42:27;;;;;;;10.40;4.43;;;;;;;29.28;18.75;94633.72;5059059;28;20045;-42
2021/05/11 03:44:58;;;;;;;12.93;4.43;;;;;;;29.41;18.48;94632.06;5054152;28;20059;-50
2021/05/11 03:47:26;;;;;;;5.93;3.78;;;;;;;29.65;18.31;94629.53;5054941;28;20115;-44
2021/05/11 03:49:53;;;;;;;9.60;4.70;;;;;;;29.36;18.53;94635.19;5054374;28;20049;-52
2021/05/11 03:52:21;;;;;;;6.03;4.07;;;;;;;29.43;18.45;94634.38;5054776;28;20052;-49
2021/05/11 03:54:48;;;;;;;11.32;4.38;;;;;;;28.59;18.75;94631.94;5074237;28;20044;-48
2021/05/11 03:57:15;;;;;;;9.18;4.90;;;;;;;29.27;18.32;94634.88;5075000;28;20470;-46
2021/05/11 03:59:42;;;;;;;7.38;4.05;;;;;;;30.16;17.47;94638.56;5075315;28;20053;-46
2021/05/11 04:02:09;;;;;;;9.93;5.13;;;;;;;29.26;18.39;94633.38;5074987;28;20447;-58
2021/05/11 04:04:36;;;;;;;9.68;5.50;;;;;;;29.00;19.01;94639.38;5074008;28;20053;-54
2021/05/11 04:07:06;;;;;;;9.15;5.07;;;;;;;28.78;19.19;94634.13;5074634;28;20053;-47
2021/05/11 04:09:45;;;;;;;9.27;4.70;;;;;;;29.66;18.36;94639.13;5074989;28;20056;-55
2021/05/11 04:17:54;;;;;;;5.57;3.55;;;;;;;29.54;18.20;94636.97;5060598;28;20060;-49
2021/05/11 04:20:22;;;;;;;6.38;3.75;;;;;;;31.47;16.63;94636.59;5058275;28;20049;-54
2021/05/11 04:22:49;;;;;;;10.65;3.90;;;;;;;31.43;16.36;94638.59;5056963;28;20439;-52
2021/05/11 04:25:16;;;;;;;10.63;3.97;;;;;;;30.44;17.58;94640.13;5074788;28;20047;-52
2021/05/11 04:27:43;;;;;;;8.35;3.63;;;;;;;30.94;16.99;94629.38;5074599;28;20045;-54
2021/05/11 04:30:11;;;;;;;4.25;3.10;;;;;;;30.52;17.34;94636.94;5073484;28;20044;-51
2021/05/11 04:32:38;;;;;;;3.95;2.85;;;;;;;31.09;16.75;94636.09;5074446;28;20048;-46
2021/05/11 04:35:05;;;;;;;3.83;2.63;;;;;;;30.78;16.49;94637.38;5074859;28;20090;-50
2021/05/11 04:37:33;;;;;;;4.95;2.70;;;;;;;31.00;16.33;94638.56;5067727;28;20368;-51
2021/05/11 04:40:00;;;;;;;7.07;3.47;;;;;;;31.59;16.24;94640.63;5053603;28;20052;-52
2021/05/11 04:42:27;;;;;;;5.30;3.40;;;;;;;31.86;15.99;94633.19;5069184;28;20048;-52
2021/05/11 04:44:56;;;;;;;8.85;4.15;;;;;;;31.74;16.18;94638.44;5059095;28;20448;-48
2021/05/11 04:47:45;;;;;;;7.63;3.97;;;;;;;31.11;16.27;94635.66;5054863;28;20060;-52
2021/05/11 04:50:10;;;;;;;4.32;3.28;;;;;;;31.56;15.51;94638.78;5058274;28;20037;-52
2021/05/11 04:52:38;;;;;;;7.07;3.40;;;;;;;31.37;15.78;94639.50;5058347;28;20436;-50
2021/05/11 04:55:05;;;;;;;4.28;2.60;;;;;;;31.16;16.33;94630.59;5058403;28;20083;-46
2021/05/11 04:57:32;;;;;;;3.75;2.58;;;;;;;31.32;15.43;94626.47;5058147;28;20389;-50
2021/05/11 05:00:02;;;;;;;3.58;2.70;;;;;;;30.69;16.47;94629.75;5058285;28;20049;-54
2021/05/11 05:02:30;;;;;;;7.00;3.45;;;;;;;31.30;16.64;94629.59;5058340;28;20048;-52
2021/05/11 05:04:57;;;;;;;7.88;3.00;;;;;;;31.36;16.19;94619.84;5076725;28;20075;-52
2021/05/11 05:07:24;;;;;;;4.40;2.80;;;;;;;30.91;15.98;94632.91;5078189;28;20059;-47
2021/05/11 05:09:51;;;;;;;3.08;2.55;;;;;;;31.29;16.90;94623.44;5077931;28;20044;-51
2021/05/11 05:12:18;;;;;;;4.10;2.72;;;;;;;31.38;16.35;94624.81;5077676;28;20055;-49
2021/05/11 05:14:46;;;;;;;5.32;2.78;;;;;;;31.84;15.15;94624.75;5077897;28;20061;-51
2021/05/11 05:17:13;;;;;;;4.57;2.72;;;;;;;31.39;16.03;94620.94;5063119;28;20044;-52
2021/05/11 05:19:40;;;;;;;5.25;2.80;;;;;;;31.14;16.13;94622.09;5057743;28;20470;-52
2021/05/11 05:22:09;;;;;;;5.75;3.13;;;;;;;31.50;15.75;94616.13;5057956;28;20040;-51
2021/05/11 05:24:40;;;;;;;5.20;2.90;;;;;;;31.86;15.70;94616.97;5072347;28;20351;-50
2021/05/11 05:27:15;;;;;;;4.82;3.05;;;;;;;31.95;15.83;94621.06;5068555;28;20048;-49
2021/05/11 05:29:42;;;;;;;6.53;2.90;;;;;;;31.98;16.20;94625.63;5057535;28;20045;-52
2021/05/11 05:32:09;;;;;;;4.85;3.08;;;;;;;31.49;16.03;94619.97;5057225;28;20041;-52
2021/05/11 05:34:36;;;;;;;4.13;2.72;;;;;;;31.46;16.40;94612.69;5060868;28;20059;-50
2021/05/11 05:37:04;;;;;;;6.88;2.80;;;;;;;32.11;15.55;94621.13;5077710;28;20052;-52
2021/05/11 05:39:56;;;;;;;5.45;2.92;;;;;;;32.06;15.95;94614.25;5077393;28;20486;-53
2021/05/11 05:42:18;;;;;;;4.47;2.95;;;;;;;31.55;16.27;94612.94;5077048;28;20045;-51
2021/05/11 05:44:45;;;;;;;4.38;2.60;;;;;;;31.66;15.78;94608.06;5077314;28;20059;-51
2021/05/11 05:47:12;;;;;;;4.43;2.95;;;;;;;31.94;15.70;94601.38;5077501;28;20045;-51
2021/05/11 05:49:44;;;;;;;4.57;3.00;;;;;;;32.06;15.77;94614.25;5077303;28;20059;-54
2021/05/11 05:52:18;;;;;;;3.35;2.80;;;;;;;32.27;15.35;94607.69;5077312;28;20045;-54
2021/05/11 05:54:45;;;;;;;5.47;2.75;;;;;;;32.24;15.60;94613.88;5077058;28;20056;-52
2021/05/11 05:57:13;;;;;;;3.78;3.00;;;;;;;32.39;15.14;94614.38;5077257;28;20040;-52
2021/05/11 05:59:44;;;;;;;3.88;2.72;;;;;;;32.38;16.05;94612.84;5076925;28;20068;-52
2021/05/11 06:02:19;;;;;;;4.75;3.10;;;;;;;32.48;16.24;94606.41;5070237;28;20059;-53
2021/05/11 06:04:46;;;;;;;3.80;3.00;;;;;;;32.37;15.51;94617.50;5059791;28;20492;-51
2021/05/11 06:07:14;;;;;;;6.45;2.88;;;;;;;32.61;15.51;94611.94;5077135;28;20051;-53
2021/05/11 06:09:41;;;;;;;5.35;2.72;;;;;;;33.00;14.65;94603.66;5076907;28;20056;-52
2021/05/11 06:12:48;;;;;;;5.07;2.80;;;;;;;33.38;14.22;94605.84;5075514;28;20045;-51
2021/05/11 06:17:35;;;;;;;4.88;2.83;;;;;;;32.43;15.32;94609.63;5076892;28;20048;-53
2021/05/11 06:20:03;;;;;;;4.30;3.00;;;;;;;32.81;15.42;94607.25;5076673;28;20463;-50
2021/05/11 06:22:30;;;;;;;5.93;3.20;;;;;;;32.62;15.13;94610.75;5076859;28;20044;-52
2021/05/11 06:24:59;;;;;;;6.30;2.90;;;;;;;33.02;14.37;94601.28;5076393;28;20059;-53
2021/05/11 06:27:26;;;;;;;4.82;3.28;;;;;;;33.83;14.43;94596.88;5077268;28;20045;-53
2021/05/11 06:29:56;;;;;;;3.97;2.70;;;;;;;33.71;14.17;94601.09;5076605;28;20470;-52
2021/05/11 06:32:24;;;;;;;6.65;2.90;;;;;;;33.94;14.41;94597.38;5061293;28;20053;-53
2021/05/11 06:35:01;;;;;;;5.03;2.75;;;;;;;34.24;14.57;94594.16;5060006;28;20056;-52
2021/05/11 06:37:30;;;;;;;8.93;3.67;;;;;;;34.23;14.50;94598.06;5076425;28;20048;-51
2021/05/11 06:39:58;;;;;;;4.38;3.20;;;;;;;33.34;14.52;94597.81;5076365;28;20044;-54
2021/05/11 06:42:27;;;;;;;5.35;3.10;;;;;;;33.66;14.58;94594.25;5076170;28;20367;-53
2021/05/11 06:45:52;;;;;;;5.60;3.50;;;;;;;34.45;14.16;94595.50;5076130;28;20051;-55
2021/05/11 06:48:02;;;;;;;4.15;3.05;;;;;;;34.23;14.67;94598.06;5058645;28;20049;-50
2021/05/11 06:50:33;;;;;;;6.93;3.30;;;;;;;34.50;14.35;94596.91;5056041;28;20048;-55
2021/05/11 06:53:12;;;;;;;7.00;3.35;;;;;;;34.46;14.10;94594.31;5056162;28;20049;-53
2021/05/11 06:55:42;;;;;;;5.10;3.33;;;;;;;34.87;13.78;94593.44;5065414;28;20056;-52
2021/05/11 06:58:10;;;;;;;6.13;3.70;;;;;;;34.56;13.90;94587.03;5076047;28;20044;-53
2021/05/11 07:00:44;;;;;;;9.50;3.80;;;;;;;34.06;14.83;94593.91;5075829;28;20446;-54
2021/05/11 07:03:11;;;;;;;6.45;3.97;;;;;;;34.59;14.13;94586.16;5076295;28;20366;-53
2021/05/11 07:05:39;;;;;;;9.75;4.30;;;;;;;35.77;13.79;94583.03;5075528;28;20056;-51
2021/05/11 07:10:40;;;;;;;7.95;3.90;;;;;;;35.87;13.79;94575.72;5060369;28;20060;-53
2021/05/11 07:13:14;;;;;;;8.35;4.18;;;;;;;35.49;13.48;94591.00;5075573;28;20354;-52
2021/05/11 07:15:45;;;;;;;8.93;3.60;;;;;;;36.44;13.07;94585.25;5075437;28;20055;-53
2021/05/11 07:18:13;;;;;;;6.70;4.05;;;;;;;36.81;13.15;94579.94;5075777;28;20044;-52
2021/05/11 07:20:42;;;;;;;6.93;3.78;;;;;;;35.45;13.50;94582.22;5075542;28;20041;-52
2021/05/11 07:23:10;;;;;;;6.68;3.72;;;;;;;35.95;13.14;94577.75;5075709;28;20328;-52
2021/05/11 07:25:56;;;;;;;8.85;4.47;;;;;;;36.35;12.70;94577.78;5075298;28;20048;-52
2021/05/11 07:31:01;;;;;;;5.25;3.47;;;;;;;36.12;12.87;94570.84;5058444;28;20057;-54
2021/05/11 07:36:05;;;;;;;6.15;3.75;;;;;;;35.92;12.78;94573.19;5067331;28;20052;-51
2021/05/11 07:38:32;;;;;;;11.85;4.95;;;;;;;35.72;12.62;94575.44;5063784;28;20075;-52
2021/05/11 07:40:59;;;;;;;7.78;3.90;;;;;;;35.85;13.38;94568.00;5057627;28;20431;-53
2021/05/11 07:43:28;;;;;;;8.73;4.28;;;;;;;37.32;12.78;94569.28;5075338;28;20040;-56
2021/05/11 08:01:54;;;;;;;6.38;4.13;;;;;;;37.16;12.58;94553.94;5075088;28;20126;-54
2021/05/11 08:15:30;;;;;;;6.88;4.45;;;;;;;37.34;12.45;94524.00;5074081;28;20044;-56
2021/05/11 08:28:54;;;;;;;8.52;4.10;;;;;;;38.05;11.59;94519.34;5078902;28;20041;-53
2021/05/11 08:31:21;;;;;;;9.65;7.00;;;;;;;38.66;10.88;94518.03;5096519;28;20051;-53
2021/05/11 08:33:49;;;;;;;17.05;10.85;;;;;;;37.11;12.79;94515.66;5119542;28;20036;-53
2021/05/11 08:36:16;;;;;;;13.23;7.65;;;;;;;37.59;12.35;94516.69;5119439;28;20051;-52
2021/05/11 08:38:43;;;;;;;13.10;8.80;;;;;;;39.23;11.61;94525.41;5119153;28;20074;-53
2021/05/11 08:41:10;;;;;;;12.15;7.05;;;;;;;39.32;11.25;94517.13;5118510;28;20038;-53
2021/05/11 08:43:41;;;;;;;7.82;4.68;;;;;;;39.85;10.75;94519.06;5119163;28;20442;-53
2021/05/11 08:46:10;;;;;;;6.22;4.95;;;;;;;39.05;11.14;94518.84;5118676;28;20047;-54
2021/05/11 08:48:38;;;;;;;8.68;4.30;;;;;;;39.11;10.88;94519.72;5079426;28;20052;-58
2021/05/11 09:04:41;;;;;;;6.60;3.58;;;;;;;40.04;10.36;94501.22;5109637;28;20044;-56
2021/05/11 09:54:53;;;;;;;4.65;2.65;;;;;;;39.85;8.72;94464.34;5117948;28;20096;-55
2021/05/11 10:32:17;;;;;;;4.53;1.70;;;;;;;40.37;7.47;94427.06;5096812;28;20059;-52
2021/05/11 10:40:36;;;;;;;3.00;1.73;;;;;;;41.25;7.80;94415.66;5085472;28;20051;-52
2021/05/11 10:48:25;;;;;;;4.15;1.50;;;;;;;41.38;8.02;94418.03;5116978;28;20059;-51
2021/05/11 10:50:58;;;;;;;3.08;1.50;;;;;;;40.28;7.83;94408.75;5113603;28;20044;-53
2021/05/11 10:53:48;;;;;;;3.08;1.40;;;;;;;40.56;8.18;94413.84;5082680;28;20374;-54
2021/05/11 10:56:35;;;;;;;3.80;1.50;;;;;;;39.42;8.60;94404.47;5075996;28;20053;-52
2021/05/11 11:01:42;;;;;;;7.88;3.33;;;;;;;40.42;8.02;94411.97;5086812;28;20052;-57
2021/05/11 11:04:10;;;;;;;2.42;1.35;;;;;;;40.23;7.42;94401.22;5075825;28;20466;-54
2021/05/11 11:07:06;;;;;;;2.17;1.20;;;;;;;39.68;7.14;94396.44;5058373;28;20051;-56
2021/05/11 11:09:38;;;;;;;4.70;0.90;;;;;;;39.81;7.00;94406.31;5079739;28;20042;-55
2021/05/11 11:12:07;;;;;;;1.42;0.70;;;;;;;40.97;6.53;94396.16;5115922;28;20050;-55
2021/05/11 11:14:44;;;;;;;1.70;0.90;;;;;;;40.60;6.87;94392.47;5098310;28;20054;-53
2021/05/11 11:17:14;;;;;;;3.10;1.02;;;;;;;40.55;6.84;94395.91;5116357;28;20047;-54
2021/05/11 11:19:48;;;;;;;3.42;0.95;;;;;;;40.21;7.01;94381.78;5115801;28;20051;-54
2021/05/11 11:25:02;;;;;;;4.20;2.47;;;;;;;39.89;7.58;94388.31;5075566;28;20048;-53
2021/05/11 11:27:32;;;;;;;3.25;1.60;;;;;;;39.61;7.84;94383.16;5075467;28;20048;-53
2021/05/11 11:30:02;;;;;;;2.38;1.13;;;;;;;40.69;7.15;94375.91;5083435;28;20059;-54
2021/05/11 11:32:30;;;;;;;4.28;1.17;;;;;;;40.54;7.55;94375.25;5115613;28;20055;-54
2021/05/11 11:34:59;;;;;;;1.63;0.95;;;;;;;41.03;7.72;94379.03;5115858;28;20053;-54
2021/05/11 11:37:28;;;;;;;3.35;1.10;;;;;;;40.80;7.63;94367.84;5115948;28;20454;-54
2021/05/11 11:40:09;;;;;;;2.88;1.02;;;;;;;40.36;7.97;94376.25;5115994;28;20055;-55
2021/05/11 11:42:41;;;;;;;1.65;1.02;;;;;;;40.56;7.58;94364.56;5115253;28;20059;-54
2021/05/11 11:45:30;;;;;;;2.42;1.08;;;;;;;40.56;7.76;94367.28;5116009;28;20043;-54
2021/05/11 11:48:00;;;;;;;2.45;1.05;;;;;;;40.29;7.82;94368.44;5075211;28;20051;-53
2021/05/11 11:50:31;;;;;;;1.67;1.00;;;;;;;39.93;7.55;94354.03;5075172;28;20048;-52
2021/05/11 11:53:04;;;;;;;3.13;1.42;;;;;;;39.80;8.13;94367.25;5095498;28;20043;-55
2021/05/11 11:57:59;;;;;;;5.10;1.15;;;;;;;40.83;7.56;94357.91;5075068;28;20056;-53
2021/05/11 12:00:29;;;;;;;4.03;1.00;;;;;;;41.11;7.29;94349.94;5074611;28;20051;-56
2021/05/11 12:03:05;;;;;;;1.25;0.70;;;;;;;40.95;7.37;94354.78;5115684;28;20055;-55
2021/05/11 12:05:37;;;;;;;3.25;0.70;;;;;;;40.55;7.59;94360.31;5087833;28;20044;-57
2021/05/11 12:10:45;;;;;;;1.17;0.80;;;;;;;40.88;7.04;94338.78;5109518;28;20079;-52
2021/05/11 12:13:14;;;;;;;5.03;1.10;;;;;;;40.65;7.63;94339.78;5115527;28;20051;-52
2021/05/11 12:15:41;;;;;;;2.15;0.93;;;;;;;40.48;8.16;94336.84;5115410;28;20352;-53
2021/05/11 12:18:18;;;;;;;2.08;1.00;;;;;;;40.54;7.82;94321.22;5114954;28;20432;-53
2021/05/11 12:20:47;;;;;;;2.45;1.00;;;;;;;41.07;7.60;94313.78;5080167;28;20052;-54
2021/05/11 12:23:18;;;;;;;4.82;0.90;;;;;;;40.69;8.23;94315.66;5097615;28;20047;-54
2021/05/11 12:25:59;;;;;;;1.35;1.00;;;;;;;40.08;8.06;94315.69;5114718;28;20036;-54
2021/05/11 12:28:34;;;;;;;2.92;0.88;;;;;;;40.16;8.27;94303.09;5115313;28;20044;-55
2021/05/11 12:31:05;;;;;;;3.03;1.00;;;;;;;40.74;8.12;94317.69;5115041;28;20055;-55
2021/05/11 12:33:44;;;;;;;2.80;1.27;;;;;;;39.90;8.30;94307.72;5075443;28;20052;-52
2021/05/11 12:36:20;;;;;;;4.15;0.90;;;;;;;40.74;7.84;94306.72;5074710;28;20466;-53
2021/05/11 12:38:49;;;;;;;1.30;0.98;;;;;;;40.27;7.63;94281.31;5066948;28;20139;-53
2021/05/11 12:41:33;;;;;;;1.70;0.93;;;;;;;41.09;7.65;94292.09;5067485;28;20051;-52
2021/05/11 12:44:03;;;;;;;1.58;1.10;;;;;;;40.57;7.98;94292.09;5095881;28;20382;-53
2021/05/11 12:46:35;;;;;;;2.38;0.88;;;;;;;40.35;7.75;94287.91;5074715;28;20055;-53
2021/05/11 12:49:15;;;;;;;5.22;1.00;;;;;;;40.25;7.95;94289.25;5074623;28;20049;-53
2021/05/11 12:51:45;;;;;;;3.03;0.80;;;;;;;39.66;8.15;94284.03;5086855;28;20044;-55
2021/05/11 12:54:27;;;;;;;2.60;0.93;;;;;;;39.69;8.42;94282.31;5094753;28;20335;-53
2021/05/11 13:02:08;;;;;;;4.88;1.02;;;;;;;39.57;8.35;94273.22;5094354;28;20055;-52
2021/05/11 13:25:09;;;;;;;2.42;1.15;;;;;;;39.87;9.04;94264.91;5097601;28;20059;-53
2021/05/11 13:26:14;;;;;;;2.50;1.10;;;;;;;40.11;8.93;94261.97;5098035;28;20048;-55
2021/05/11 13:31:43;;;;;;;1.35;1.00;;;;;;;40.18;8.80;94256.84;5036557;28;20059;-53
2021/05/11 13:34:11;;;;;;;2.33;1.00;;;;;;;40.20;8.79;94259.09;5097875;28;20363;-53
2021/05/11 13:36:43;;;;;;;1.60;1.10;;;;;;;39.26;9.01;94257.31;5097933;28;20067;-52
2021/05/11 13:39:10;;;;;;;;;;;;;;;39.81;8.51;94250.38;5090341;28;20044;-55
2021/05/11 13:41:37;;;;;;;2.28;1.17;;;;;;;40.10;8.43;94250.28;5086708;28;19916;-52
2021/05/11 13:44:05;;;;;;;2.65;0.80;;;;;;;39.29;8.87;94252.88;5097866;28;20040;-52
2021/05/11 13:46:32;;;;;;;1.70;1.10;;;;;;;39.66;8.87;94256.69;5118200;28;20043;-53
2021/05/11 13:48:59;;;;;;;2.60;1.10;;;;;;;39.63;8.83;94245.94;5109711;28;20044;-52
2021/05/11 13:51:27;;;;;;;3.15;1.13;;;;;;;39.67;9.33;94241.78;5081295;28;20078;-51
2021/05/11 13:53:58;;;;;;;4.65;1.20;;;;;;;40.48;8.73;94243.72;5096840;28;20354;-53
2021/05/11 14:04:26;;;;;;;2.20;1.08;;;;;;;39.98;8.52;94234.94;5097365;28;20040;-53
2021/05/11 14:06:53;;;;;;;3.30;1.15;;;;;;;40.19;8.63;94230.97;5095750;28;20048;-53
2021/05/11 14:09:20;;;;;;;1.52;0.90;;;;;;;39.86;8.77;94222.34;5076165;28;20040;-51
2021/05/11 14:11:48;;;;;;;2.72;1.13;;;;;;;39.92;8.12;94218.44;5095531;28;20369;-52
2021/05/11 14:14:15;;;;;;;1.77;1.02;;;;;;;40.23;8.17;94220.56;5114944;28;20446;-52
2021/05/11 14:16:43;;;;;;;2.72;1.00;;;;;;;39.54;8.51;94222.19;5076742;28;20056;-52
2021/05/11 14:19:11;;;;;;;4.28;0.88;;;;;;;40.36;7.89;94218.22;5076761;28;20041;-53
2021/05/11 14:21:38;;;;;;;1.60;0.80;;;;;;;39.48;8.42;94219.38;5081834;28;20059;-53
2021/05/11 14:24:06;;;;;;;2.45;1.00;;;;;;;39.66;8.08;94207.44;5109279;28;20059;-53
2021/05/11 14:26:33;;;;;;;2.60;1.20;;;;;;;39.57;8.50;94209.56;5076633;28;20040;-52
2021/05/11 14:29:01;;;;;;;2.13;0.98;;;;;;;39.92;8.23;94206.75;5076553;28;20047;-54
2021/05/11 14:31:28;;;;;;;3.38;0.90;;;;;;;39.66;8.14;94218.38;5079709;28;20113;-53
2021/05/11 14:33:55;;;;;;;2.05;0.90;;;;;;;40.17;7.60;94205.31;5117194;28;20043;-50
2021/05/11 14:36:23;;;;;;;2.88;0.90;;;;;;;40.03;7.70;94207.66;5117165;28;20067;-53
2021/05/11 14:38:50;;;;;;;2.33;1.10;;;;;;;39.95;7.66;94208.56;5116960;28;20058;-52
2021/05/11 14:41:17;;;;;;;3.85;1.25;;;;;;;39.09;8.66;94201.69;5086088;28;20043;-51
2021/05/11 14:43:44;;;;;;;2.85;0.98;;;;;;;40.43;7.87;94203.34;5116749;28;20074;-52
2021/05/11 14:46:12;;;;;;;2.45;1.00;;;;;;;39.96;8.03;94197.13;5089361;28;20044;-52
2021/05/11 14:48:39;;;;;;;2.97;1.10;;;;;;;39.92;8.23;94206.75;5076095;28;20056;-52
2021/05/11 14:51:08;;;;;;;2.30;0.88;;;;;;;40.08;8.04;94198.00;5076072;28;20052;-54
2021/05/11 14:53:36;;;;;;;2.35;1.20;;;;;;;39.65;8.69;94189.53;5099722;28;20473;-50
2021/05/11 14:56:04;;;;;;;3.70;2.10;;;;;;;39.18;8.74;94187.88;5101378;28;20047;-51
2021/05/11 14:58:31;;;;;;;6.57;2.55;;;;;;;39.73;8.84;94185.16;5087396;28;20366;-53
2021/05/11 15:00:58;;;;;;;11.10;1.88;;;;;;;39.14;8.86;94181.88;5075970;28;20366;-51
2021/05/11 15:03:25;;;;;;;3.28;1.45;;;;;;;38.68;8.70;94179.66;5075918;28;20044;-48
2021/05/11 15:05:53;;;;;;;3.10;1.35;;;;;;;38.93;8.44;94178.31;5088167;28;20032;-49
2021/05/11 15:08:20;;;;;;;6.70;4.15;;;;;;;38.63;8.63;94179.59;5116291;28;20047;-50
2021/05/11 15:10:49;;;;;;;11.07;4.85;;;;;;;39.32;8.72;94178.16;5116143;28;20039;-52
2021/05/11 15:13:17;;;;;;;5.18;3.10;;;;;;;39.44;8.63;94171.59;5116341;28;20055;-50
2021/05/11 15:15:49;;;;;;;3.67;1.67;;;;;;;38.67;8.75;94169.97;5111781;28;20358;-53
2021/05/11 15:18:16;;;;;;;2.00;1.20;;;;;;;37.62;9.20;94188.59;5104744;28;20048;-55
2021/05/11 15:20:44;;;;;;;2.72;0.95;;;;;;;37.60;9.72;94171.94;5075744;28;20059;-51
2021/05/11 15:23:11;;;;;;;26.35;13.85;;;;;;;38.85;8.73;94167.03;5075719;28;20048;-54
2021/05/11 15:25:39;;;;;;;25.70;14.30;;;;;;;39.63;8.75;94177.56;5084411;28;20044;-52
2021/05/11 15:28:06;;;;;;;6.53;2.97;;;;;;;35.03;11.52;94165.38;5101429;28;20043;-47
2021/05/11 15:30:35;;;;;;;4.25;1.88;;;;;;;32.36;13.61;94177.78;5078292;28;20040;-45
2021/05/11 15:33:04;;;;;;;4.30;1.95;;;;;;;39.60;8.34;94164.84;5087380;28;20119;-40
2021/05/11 15:35:33;;;;;;;3.95;1.70;;;;;;;39.59;8.58;94158.63;5091443;28;20361;-43
2021/05/11 15:38:02;;;;;;;4.18;2.00;;;;;;;39.72;8.56;94161.00;5091763;28;20043;-44
2021/05/11 15:40:32;;;;;;;6.60;1.98;;;;;;;39.74;8.40;94159.28;5093451;28;20058;-42
2021/05/11 15:42:59;;;;;;;13.60;1.73;;;;;;;38.90;8.86;94153.91;5091405;28;20040;-49
2021/05/11 15:45:27;;;;;;;3.08;1.50;;;;;;;39.57;8.85;94161.09;5092929;28;20505;-45
2021/05/11 15:47:56;;;;;;;3.15;1.25;;;;;;;39.01;8.74;94152.09;5087782;28;20059;-43
2021/05/11 15:50:47;;;;;;;3.03;1.80;;;;;;;39.10;8.74;94151.25;5082016;28;20052;-48
2021/05/11 15:53:16;;;;;;;8.90;1.80;;;;;;;39.50;8.51;94155.25;5088130;28;20036;-60
2021/05/11 15:55:44;;;;;;;6.32;5.03;;;;;;;39.53;8.54;94141.38;5089235;28;20067;-49
2021/05/11 15:58:13;;;;;;;3.72;1.88;;;;;;;38.68;9.21;94144.16;5089636;28;20070;-47
2021/05/11 16:00:42;;;;;;;4.90;1.63;;;;;;;39.78;8.34;94142.66;5091122;28;20059;-51
2021/05/11 16:03:09;;;;;;;1.65;1.25;;;;;;;38.68;8.95;94149.63;5092267;28;20064;-52
2021/05/11 16:05:38;;;;;;;6.72;4.38;;;;;;;39.10;9.03;94145.78;5092034;28;20043;-55
2021/05/11 16:08:13;;;;;;;7.43;1.80;;;;;;;39.88;8.43;94146.03;5074836;28;20043;-53
2021/05/11 16:10:44;;;;;;;3.55;1.65;;;;;;;38.77;8.89;94154.22;5087241;28;20574;-51
2021/05/11 16:13:12;;;;;;;3.67;1.50;;;;;;;39.80;8.61;94150.38;5090893;28;20047;-52
2021/05/11 16:15:40;;;;;;;5.85;1.60;;;;;;;39.71;8.92;94148.56;5089113;28;20083;-52
2021/05/11 16:18:15;;;;;;;5.45;2.22;;;;;;;38.89;9.28;94144.22;5082069;28;20055;-67
2021/05/11 16:20:42;;;;;;;11.48;9.35;;;;;;;38.81;8.89;94139.16;5089192;28;20048;-52